sensor_id;sensor_type;location;lat;lon;timestamp;P1;durP1;ratioP1;P2;durP2;ratioP2
2107;SDS011;1060;52.492;13.388;2022-12-20T00:01:05;23.85;;;17.88;;
2107;SDS011;1060;52.492;13.388;2022-12-20T00:03:31;23.77;;;19.33;;
2107;SDS011;1060;52.492;13.388;2022-12-20T00:05:57;21.65;;;17.00;;
2107;SDS011;1060;52.492;13.388;2022-12-20T00:08:24;25.00;;;18.37;;
2107;SDS011;1060;52.492;13.388;2022-12-20T00:10:50;23.77;;;19.23;;
2107;SDS011;1060;52.492;13.388;2022-12-20T00:13:16;20.50;;;16.63;;
2107;SDS011;1060;52.492;13.388;2022-12-20T00:15:42;25.40;;;18.67;;
2107;SDS011;1060;52.492;13.388;2022-12-20T00:18:08;24.90;;;17.87;;
2107;SDS011;1060;52.492;13.388;2022-12-20T00:20:35;20.73;;;17.75;;
2107;SDS011;1060;52.492;13.388;2022-12-20T00:23:01;26.37;;;20.10;;
2107;SDS011;1060;52.492;13.388;2022-12-20T00:25:27;24.43;;;18.27;;
2107;SDS011;1060;52.492;13.388;2022-12-20T00:27:54;20.33;;;17.50;;
2107;SDS011;1060;52.492;13.388;2022-12-20T00:30:20;19.67;;;15.87;;
2107;SDS011;1060;52.492;13.388;2022-12-20T00:32:47;21.83;;;17.47;;
2107;SDS011;1060;52.492;13.388;2022-12-20T00:35:16;25.08;;;18.45;;
2107;SDS011;1060;52.492;13.388;2022-12-20T00:37:42;19.00;;;16.03;;
2107;SDS011;1060;52.492;13.388;2022-12-20T00:40:08;22.57;;;17.20;;
2107;SDS011;1060;52.492;13.388;2022-12-20T00:42:34;28.40;;;18.50;;
2107;SDS011;1060;52.492;13.388;2022-12-20T00:45:01;22.13;;;16.90;;
2107;SDS011;1060;52.492;13.388;2022-12-20T00:47:27;22.03;;;18.27;;
2107;SDS011;1060;52.492;13.388;2022-12-20T00:49:54;20.50;;;17.10;;
2107;SDS011;1060;52.492;13.388;2022-12-20T00:52:20;23.07;;;16.27;;
2107;SDS011;1060;52.492;13.388;2022-12-20T00:54:48;19.80;;;15.90;;
2107;SDS011;1060;52.492;13.388;2022-12-20T00:57:17;16.90;;;15.00;;
2107;SDS011;1060;52.492;13.388;2022-12-20T00:59:44;17.77;;;15.90;;
2107;SDS011;1060;52.492;13.388;2022-12-20T01:02:10;21.20;;;15.80;;
2107;SDS011;1060;52.492;13.388;2022-12-20T01:04:39;20.65;;;15.65;;
2107;SDS011;1060;52.492;13.388;2022-12-20T01:07:07;19.40;;;15.17;;
2107;SDS011;1060;52.492;13.388;2022-12-20T01:09:33;23.30;;;17.70;;
2107;SDS011;1060;52.492;13.388;2022-12-20T01:12:00;20.07;;;15.37;;
2107;SDS011;1060;52.492;13.388;2022-12-20T01:14:26;20.63;;;18.03;;
2107;SDS011;1060;52.492;13.388;2022-12-20T01:16:52;20.40;;;18.30;;
2107;SDS011;1060;52.492;13.388;2022-12-20T01:19:18;20.45;;;18.33;;
2107;SDS011;1060;52.492;13.388;2022-12-20T01:21:47;19.10;;;14.47;;
2107;SDS011;1060;52.492;13.388;2022-12-20T01:24:14;19.23;;;16.17;;
2107;SDS011;1060;52.492;13.388;2022-12-20T01:26:41;21.70;;;16.50;;
2107;SDS011;1060;52.492;13.388;2022-12-20T01:29:08;19.90;;;17.70;;
2107;SDS011;1060;52.492;13.388;2022-12-20T01:31:34;17.33;;;14.20;;
2107;SDS011;1060;52.492;13.388;2022-12-20T01:34:00;21.87;;;18.10;;
2107;SDS011;1060;52.492;13.388;2022-12-20T01:36:28;20.60;;;14.85;;
2107;SDS011;1060;52.492;13.388;2022-12-20T01:39:00;23.10;;;16.50;;
2107;SDS011;1060;52.492;13.388;2022-12-20T01:41:27;21.63;;;17.80;;
2107;SDS011;1060;52.492;13.388;2022-12-20T01:43:58;20.70;;;16.80;;
2107;SDS011;1060;52.492;13.388;2022-12-20T01:46:26;20.90;;;15.30;;
2107;SDS011;1060;52.492;13.388;2022-12-20T01:51:22;19.10;;;15.30;;
2107;SDS011;1060;52.492;13.388;2022-12-20T01:53:50;18.43;;;15.07;;
2107;SDS011;1060;52.492;13.388;2022-12-20T01:56:17;21.30;;;16.90;;
2107;SDS011;1060;52.492;13.388;2022-12-20T01:58:43;19.63;;;17.20;;
2107;SDS011;1060;52.492;13.388;2022-12-20T02:01:11;19.73;;;15.33;;
2107;SDS011;1060;52.492;13.388;2022-12-20T02:03:37;17.73;;;15.13;;
2107;SDS011;1060;52.492;13.388;2022-12-20T02:06:18;20.10;;;14.80;;
2107;SDS011;1060;52.492;13.388;2022-12-20T02:08:44;18.87;;;16.13;;
2107;SDS011;1060;52.492;13.388;2022-12-20T02:14:03;19.88;;;14.65;;
2107;SDS011;1060;52.492;13.388;2022-12-20T02:16:42;20.30;;;16.47;;
2107;SDS011;1060;52.492;13.388;2022-12-20T02:22:15;20.53;;;15.23;;
2107;SDS011;1060;52.492;13.388;2022-12-20T02:27:29;18.87;;;15.17;;
2107;SDS011;1060;52.492;13.388;2022-12-20T02:32:27;22.27;;;19.90;;
2107;SDS011;1060;52.492;13.388;2022-12-20T02:34:55;18.17;;;15.10;;
2107;SDS011;1060;52.492;13.388;2022-12-20T02:37:21;20.10;;;15.60;;
2107;SDS011;1060;52.492;13.388;2022-12-20T02:39:48;22.53;;;17.17;;
2107;SDS011;1060;52.492;13.388;2022-12-20T02:42:16;19.50;;;16.75;;
2107;SDS011;1060;52.492;13.388;2022-12-20T02:44:43;15.80;;;14.00;;
2107;SDS011;1060;52.492;13.388;2022-12-20T02:47:34;20.17;;;17.50;;
2107;SDS011;1060;52.492;13.388;2022-12-20T02:50:02;19.27;;;17.07;;
2107;SDS011;1060;52.492;13.388;2022-12-20T02:52:30;16.27;;;13.83;;
2107;SDS011;1060;52.492;13.388;2022-12-20T02:54:56;17.07;;;14.90;;
2107;SDS011;1060;52.492;13.388;2022-12-20T02:57:25;20.20;;;17.13;;
2107;SDS011;1060;52.492;13.388;2022-12-20T02:59:56;18.97;;;16.60;;
2107;SDS011;1060;52.492;13.388;2022-12-20T03:02:27;22.00;;;14.63;;
2107;SDS011;1060;52.492;13.388;2022-12-20T03:04:53;18.70;;;14.80;;
2107;SDS011;1060;52.492;13.388;2022-12-20T03:07:21;21.93;;;15.03;;
2107;SDS011;1060;52.492;13.388;2022-12-20T03:09:47;17.90;;;15.37;;
2107;SDS011;1060;52.492;13.388;2022-12-20T03:12:14;18.60;;;15.67;;
2107;SDS011;1060;52.492;13.388;2022-12-20T03:14:40;19.20;;;15.33;;
2107;SDS011;1060;52.492;13.388;2022-12-20T03:17:09;17.23;;;15.30;;
2107;SDS011;1060;52.492;13.388;2022-12-20T03:19:36;21.13;;;15.83;;
2107;SDS011;1060;52.492;13.388;2022-12-20T03:22:06;20.93;;;18.73;;
2107;SDS011;1060;52.492;13.388;2022-12-20T03:24:32;19.30;;;14.30;;
2107;SDS011;1060;52.492;13.388;2022-12-20T03:26:58;16.23;;;14.53;;
2107;SDS011;1060;52.492;13.388;2022-12-20T03:29:25;18.20;;;14.77;;
2107;SDS011;1060;52.492;13.388;2022-12-20T03:31:51;14.70;;;13.13;;
2107;SDS011;1060;52.492;13.388;2022-12-20T03:34:17;19.87;;;15.50;;
2107;SDS011;1060;52.492;13.388;2022-12-20T03:36:43;15.07;;;12.97;;
2107;SDS011;1060;52.492;13.388;2022-12-20T03:39:10;18.67;;;14.73;;
2107;SDS011;1060;52.492;13.388;2022-12-20T03:41:39;16.63;;;14.83;;
2107;SDS011;1060;52.492;13.388;2022-12-20T03:44:06;17.43;;;13.70;;
2107;SDS011;1060;52.492;13.388;2022-12-20T03:46:32;19.60;;;16.20;;
2107;SDS011;1060;52.492;13.388;2022-12-20T03:48:59;19.17;;;14.90;;
2107;SDS011;1060;52.492;13.388;2022-12-20T03:51:26;24.43;;;16.23;;
2107;SDS011;1060;52.492;13.388;2022-12-20T03:53:52;17.60;;;14.53;;
2107;SDS011;1060;52.492;13.388;2022-12-20T03:56:21;18.90;;;15.67;;
2107;SDS011;1060;52.492;13.388;2022-12-20T03:58:47;19.67;;;16.23;;
2107;SDS011;1060;52.492;13.388;2022-12-20T04:01:21;17.57;;;15.73;;
2107;SDS011;1060;52.492;13.388;2022-12-20T04:03:49;18.43;;;14.07;;
2107;SDS011;1060;52.492;13.388;2022-12-20T04:06:15;17.40;;;14.90;;
2107;SDS011;1060;52.492;13.388;2022-12-20T04:08:42;14.33;;;12.87;;
2107;SDS011;1060;52.492;13.388;2022-12-20T04:11:10;16.90;;;15.10;;
2107;SDS011;1060;52.492;13.388;2022-12-20T04:13:58;20.60;;;14.40;;
2107;SDS011;1060;52.492;13.388;2022-12-20T04:16:27;21.07;;;15.30;;
2107;SDS011;1060;52.492;13.388;2022-12-20T04:18:54;22.07;;;15.27;;
2107;SDS011;1060;52.492;13.388;2022-12-20T04:21:25;15.63;;;13.70;;
2107;SDS011;1060;52.492;13.388;2022-12-20T04:23:54;17.43;;;14.90;;
2107;SDS011;1060;52.492;13.388;2022-12-20T04:26:22;18.87;;;13.03;;
2107;SDS011;1060;52.492;13.388;2022-12-20T04:28:48;16.93;;;15.23;;
2107;SDS011;1060;52.492;13.388;2022-12-20T04:31:17;16.97;;;15.17;;
2107;SDS011;1060;52.492;13.388;2022-12-20T04:33:44;16.33;;;14.63;;
2107;SDS011;1060;52.492;13.388;2022-12-20T04:36:13;25.10;;;15.47;;
2107;SDS011;1060;52.492;13.388;2022-12-20T04:38:40;22.33;;;15.73;;
2107;SDS011;1060;52.492;13.388;2022-12-20T04:41:06;18.20;;;13.93;;
2107;SDS011;1060;52.492;13.388;2022-12-20T04:43:43;18.00;;;14.13;;
2107;SDS011;1060;52.492;13.388;2022-12-20T04:46:13;23.88;;;15.35;;
2107;SDS011;1060;52.492;13.388;2022-12-20T04:48:39;14.63;;;13.00;;
2107;SDS011;1060;52.492;13.388;2022-12-20T04:51:05;22.30;;;13.60;;
2107;SDS011;1060;52.492;13.388;2022-12-20T04:53:32;18.00;;;15.77;;
2107;SDS011;1060;52.492;13.388;2022-12-20T04:56:49;14.83;;;12.30;;
2107;SDS011;1060;52.492;13.388;2022-12-20T04:59:20;17.33;;;15.50;;
2107;SDS011;1060;52.492;13.388;2022-12-20T05:01:49;16.80;;;15.00;;
2107;SDS011;1060;52.492;13.388;2022-12-20T05:04:43;17.27;;;15.33;;
2107;SDS011;1060;52.492;13.388;2022-12-20T05:07:09;17.25;;;15.45;;
2107;SDS011;1060;52.492;13.388;2022-12-20T05:09:38;17.17;;;15.47;;
2107;SDS011;1060;52.492;13.388;2022-12-20T05:12:07;18.58;;;15.27;;
2107;SDS011;1060;52.492;13.388;2022-12-20T05:14:33;23.42;;;17.73;;
2107;SDS011;1060;52.492;13.388;2022-12-20T05:17:00;17.92;;;16.02;;
2107;SDS011;1060;52.492;13.388;2022-12-20T05:19:27;23.70;;;15.93;;
2107;SDS011;1060;52.492;13.388;2022-12-20T05:21:54;18.93;;;15.53;;
2107;SDS011;1060;52.492;13.388;2022-12-20T05:24:45;18.20;;;13.50;;
2107;SDS011;1060;52.492;13.388;2022-12-20T05:27:34;19.20;;;13.68;;
2107;SDS011;1060;52.492;13.388;2022-12-20T05:30:48;19.42;;;15.63;;
2107;SDS011;1060;52.492;13.388;2022-12-20T05:32:55;16.43;;;14.73;;
2107;SDS011;1060;52.492;13.388;2022-12-20T05:35:30;16.38;;;14.65;;
2107;SDS011;1060;52.492;13.388;2022-12-20T05:38:06;18.83;;;13.47;;
2107;SDS011;1060;52.492;13.388;2022-12-20T05:40:37;18.50;;;14.20;;
2107;SDS011;1060;52.492;13.388;2022-12-20T05:43:07;18.57;;;13.30;;
2107;SDS011;1060;52.492;13.388;2022-12-20T05:45:40;20.45;;;15.57;;
2107;SDS011;1060;52.492;13.388;2022-12-20T05:48:29;21.42;;;16.50;;
2107;SDS011;1060;52.492;13.388;2022-12-20T05:50:57;17.73;;;14.20;;
2107;SDS011;1060;52.492;13.388;2022-12-20T05:54:35;18.93;;;14.13;;
2107;SDS011;1060;52.492;13.388;2022-12-20T05:56:52;23.02;;;13.70;;
2107;SDS011;1060;52.492;13.388;2022-12-20T05:59:23;13.13;;;11.73;;
2107;SDS011;1060;52.492;13.388;2022-12-20T06:01:55;15.60;;;13.90;;
2107;SDS011;1060;52.492;13.388;2022-12-20T06:04:32;19.53;;;14.33;;
2107;SDS011;1060;52.492;13.388;2022-12-20T06:07:02;18.57;;;15.67;;
2107;SDS011;1060;52.492;13.388;2022-12-20T06:12:24;23.23;;;15.83;;
2107;SDS011;1060;52.492;13.388;2022-12-20T06:14:57;16.10;;;14.40;;
2107;SDS011;1060;52.492;13.388;2022-12-20T06:17:27;16.30;;;13.57;;
2107;SDS011;1060;52.492;13.388;2022-12-20T06:20:10;20.00;;;17.77;;
2107;SDS011;1060;52.492;13.388;2022-12-20T06:22:37;18.77;;;16.77;;
2107;SDS011;1060;52.492;13.388;2022-12-20T06:25:04;18.47;;;14.67;;
2107;SDS011;1060;52.492;13.388;2022-12-20T06:27:32;16.40;;;13.27;;
2107;SDS011;1060;52.492;13.388;2022-12-20T06:30:06;15.10;;;13.40;;
2107;SDS011;1060;52.492;13.388;2022-12-20T06:32:44;18.50;;;16.60;;
2107;SDS011;1060;52.492;13.388;2022-12-20T06:35:11;20.27;;;16.57;;
2107;SDS011;1060;52.492;13.388;2022-12-20T06:37:39;22.10;;;15.40;;
2107;SDS011;1060;52.492;13.388;2022-12-20T06:40:10;20.13;;;15.80;;
2107;SDS011;1060;52.492;13.388;2022-12-20T06:42:37;19.13;;;17.10;;
2107;SDS011;1060;52.492;13.388;2022-12-20T06:45:05;16.73;;;14.90;;
2107;SDS011;1060;52.492;13.388;2022-12-20T06:50:08;17.40;;;15.27;;
2107;SDS011;1060;52.492;13.388;2022-12-20T06:52:35;19.77;;;17.67;;
2107;SDS011;1060;52.492;13.388;2022-12-20T06:55:01;20.37;;;17.20;;
2107;SDS011;1060;52.492;13.388;2022-12-20T06:57:30;18.93;;;17.00;;
2107;SDS011;1060;52.492;13.388;2022-12-20T06:59:57;20.00;;;16.97;;
2107;SDS011;1060;52.492;13.388;2022-12-20T07:02:23;26.17;;;17.43;;
2107;SDS011;1060;52.492;13.388;2022-12-20T07:04:55;19.60;;;16.50;;
2107;SDS011;1060;52.492;13.388;2022-12-20T07:07:21;24.00;;;16.87;;
2107;SDS011;1060;52.492;13.388;2022-12-20T07:09:50;18.33;;;15.27;;
2107;SDS011;1060;52.492;13.388;2022-12-20T07:12:19;20.03;;;17.87;;
2107;SDS011;1060;52.492;13.388;2022-12-20T07:14:45;21.73;;;19.47;;
2107;SDS011;1060;52.492;13.388;2022-12-20T07:17:11;22.87;;;16.57;;
2107;SDS011;1060;52.492;13.388;2022-12-20T07:19:38;22.23;;;17.90;;
2107;SDS011;1060;52.492;13.388;2022-12-20T07:22:04;17.50;;;15.60;;
2107;SDS011;1060;52.492;13.388;2022-12-20T07:24:30;27.83;;;19.33;;
2107;SDS011;1060;52.492;13.388;2022-12-20T07:26:57;23.03;;;19.63;;
2107;SDS011;1060;52.492;13.388;2022-12-20T07:29:23;18.90;;;17.00;;
2107;SDS011;1060;52.492;13.388;2022-12-20T07:31:50;24.23;;;18.53;;
2107;SDS011;1060;52.492;13.388;2022-12-20T07:34:17;20.27;;;17.83;;
2107;SDS011;1060;52.492;13.388;2022-12-20T07:36:43;20.47;;;17.73;;
2107;SDS011;1060;52.492;13.388;2022-12-20T07:39:09;21.77;;;17.73;;
2107;SDS011;1060;52.492;13.388;2022-12-20T07:41:35;20.10;;;17.33;;
2107;SDS011;1060;52.492;13.388;2022-12-20T07:44:02;20.17;;;17.57;;
2107;SDS011;1060;52.492;13.388;2022-12-20T07:46:28;18.87;;;16.87;;
2107;SDS011;1060;52.492;13.388;2022-12-20T07:48:54;23.40;;;17.33;;
2107;SDS011;1060;52.492;13.388;2022-12-20T07:51:31;43.43;;;19.07;;
2107;SDS011;1060;52.492;13.388;2022-12-20T07:54:05;22.70;;;18.17;;
2107;SDS011;1060;52.492;13.388;2022-12-20T07:56:33;23.70;;;18.10;;
2107;SDS011;1060;52.492;13.388;2022-12-20T07:59:00;22.60;;;18.50;;
2107;SDS011;1060;52.492;13.388;2022-12-20T08:01:27;22.53;;;17.90;;
2107;SDS011;1060;52.492;13.388;2022-12-20T08:03:56;27.77;;;19.80;;
2107;SDS011;1060;52.492;13.388;2022-12-20T08:06:24;26.27;;;22.73;;
2107;SDS011;1060;52.492;13.388;2022-12-20T08:08:51;23.73;;;20.30;;
2107;SDS011;1060;52.492;13.388;2022-12-20T08:11:21;24.70;;;20.50;;
2107;SDS011;1060;52.492;13.388;2022-12-20T08:13:49;22.30;;;17.70;;
2107;SDS011;1060;52.492;13.388;2022-12-20T08:16:15;24.07;;;18.50;;
2107;SDS011;1060;52.492;13.388;2022-12-20T08:18:41;22.90;;;18.50;;
2107;SDS011;1060;52.492;13.388;2022-12-20T08:21:07;27.60;;;21.77;;
2107;SDS011;1060;52.492;13.388;2022-12-20T08:23:37;23.63;;;21.17;;
2107;SDS011;1060;52.492;13.388;2022-12-20T08:26:03;21.30;;;18.90;;
2107;SDS011;1060;52.492;13.388;2022-12-20T08:28:32;22.97;;;20.30;;
2107;SDS011;1060;52.492;13.388;2022-12-20T08:31:05;21.80;;;18.47;;
2107;SDS011;1060;52.492;13.388;2022-12-20T08:33:32;23.63;;;20.40;;
2107;SDS011;1060;52.492;13.388;2022-12-20T08:35:59;24.17;;;18.63;;
2107;SDS011;1060;52.492;13.388;2022-12-20T08:38:27;24.13;;;21.53;;
2107;SDS011;1060;52.492;13.388;2022-12-20T08:40:53;24.80;;;21.13;;
2107;SDS011;1060;52.492;13.388;2022-12-20T08:43:19;21.97;;;19.67;;
2107;SDS011;1060;52.492;13.388;2022-12-20T08:45:50;22.90;;;19.40;;
2107;SDS011;1060;52.492;13.388;2022-12-20T08:48:17;21.63;;;19.33;;
2107;SDS011;1060;52.492;13.388;2022-12-20T08:50:43;25.17;;;19.70;;
2107;SDS011;1060;52.492;13.388;2022-12-20T08:53:10;25.90;;;20.90;;
2107;SDS011;1060;52.492;13.388;2022-12-20T08:55:36;28.03;;;21.90;;
2107;SDS011;1060;52.492;13.388;2022-12-20T08:58:02;23.20;;;20.80;;
2107;SDS011;1060;52.492;13.388;2022-12-20T09:00:31;28.43;;;22.67;;
2107;SDS011;1060;52.492;13.388;2022-12-20T09:02:58;20.43;;;18.23;;
2107;SDS011;1060;52.492;13.388;2022-12-20T09:05:27;25.50;;;18.63;;
2107;SDS011;1060;52.492;13.388;2022-12-20T09:07:53;24.37;;;21.07;;
2107;SDS011;1060;52.492;13.388;2022-12-20T09:10:19;23.00;;;18.93;;
2107;SDS011;1060;52.492;13.388;2022-12-20T09:12:46;22.93;;;18.30;;
2107;SDS011;1060;52.492;13.388;2022-12-20T09:15:14;23.30;;;19.00;;
2107;SDS011;1060;52.492;13.388;2022-12-20T09:17:40;18.87;;;16.97;;
2107;SDS011;1060;52.492;13.388;2022-12-20T09:20:06;23.53;;;19.77;;
2107;SDS011;1060;52.492;13.388;2022-12-20T09:22:33;25.10;;;20.10;;
2107;SDS011;1060;52.492;13.388;2022-12-20T09:24:59;20.60;;;16.80;;
2107;SDS011;1060;52.492;13.388;2022-12-20T09:27:26;21.50;;;18.03;;
2107;SDS011;1060;52.492;13.388;2022-12-20T09:29:52;21.60;;;19.30;;
2107;SDS011;1060;52.492;13.388;2022-12-20T09:32:18;21.30;;;19.00;;
2107;SDS011;1060;52.492;13.388;2022-12-20T09:34:45;19.30;;;16.63;;
2107;SDS011;1060;52.492;13.388;2022-12-20T09:37:12;20.60;;;18.00;;
2107;SDS011;1060;52.492;13.388;2022-12-20T09:39:38;20.33;;;16.37;;
2107;SDS011;1060;52.492;13.388;2022-12-20T09:42:12;20.83;;;17.20;;
2107;SDS011;1060;52.492;13.388;2022-12-20T09:44:40;20.37;;;18.03;;
2107;SDS011;1060;52.492;13.388;2022-12-20T09:47:27;20.80;;;14.80;;
2107;SDS011;1060;52.492;13.388;2022-12-20T09:49:56;21.90;;;16.40;;
2107;SDS011;1060;52.492;13.388;2022-12-20T09:52:40;15.80;;;14.10;;
2107;SDS011;1060;52.492;13.388;2022-12-20T10:00:18;21.13;;;16.90;;
2107;SDS011;1060;52.492;13.388;2022-12-20T10:03:03;18.07;;;16.27;;
2107;SDS011;1060;52.492;13.388;2022-12-20T10:05:55;19.33;;;16.10;;
2107;SDS011;1060;52.492;13.388;2022-12-20T10:11:13;18.53;;;16.50;;
2107;SDS011;1060;52.492;13.388;2022-12-20T10:16:33;18.77;;;16.60;;
2107;SDS011;1060;52.492;13.388;2022-12-20T10:21:51;18.07;;;15.23;;
2107;SDS011;1060;52.492;13.388;2022-12-20T10:24:24;19.30;;;16.97;;
2107;SDS011;1060;52.492;13.388;2022-12-20T10:26:52;22.90;;;18.23;;
2107;SDS011;1060;52.492;13.388;2022-12-20T10:29:18;19.00;;;17.03;;
2107;SDS011;1060;52.492;13.388;2022-12-20T10:31:48;19.13;;;17.10;;
2107;SDS011;1060;52.492;13.388;2022-12-20T10:34:14;18.50;;;16.57;;
2107;SDS011;1060;52.492;13.388;2022-12-20T10:36:41;16.63;;;14.93;;
2107;SDS011;1060;52.492;13.388;2022-12-20T10:39:07;16.67;;;14.93;;
2107;SDS011;1060;52.492;13.388;2022-12-20T10:44:22;24.03;;;16.80;;
2107;SDS011;1060;52.492;13.388;2022-12-20T10:46:50;20.10;;;16.83;;
2107;SDS011;1060;52.492;13.388;2022-12-20T10:49:39;16.47;;;14.47;;
2107;SDS011;1060;52.492;13.388;2022-12-20T10:54:35;14.40;;;12.83;;
2107;SDS011;1060;52.492;13.388;2022-12-20T10:57:03;15.20;;;13.53;;
2107;SDS011;1060;52.492;13.388;2022-12-20T10:59:37;17.23;;;15.00;;
2107;SDS011;1060;52.492;13.388;2022-12-20T11:02:24;24.40;;;16.70;;
2107;SDS011;1060;52.492;13.388;2022-12-20T11:07:37;19.13;;;15.23;;
2107;SDS011;1060;52.492;13.388;2022-12-20T11:12:34;16.13;;;14.40;;
2107;SDS011;1060;52.492;13.388;2022-12-20T11:15:09;15.73;;;14.10;;
2107;SDS011;1060;52.492;13.388;2022-12-20T11:17:37;19.17;;;15.50;;
2107;SDS011;1060;52.492;13.388;2022-12-20T11:23:00;19.80;;;15.07;;
2107;SDS011;1060;52.492;13.388;2022-12-20T11:25:34;16.47;;;14.70;;
2107;SDS011;1060;52.492;13.388;2022-12-20T11:33:36;20.10;;;15.17;;
2107;SDS011;1060;52.492;13.388;2022-12-20T11:36:10;18.03;;;14.00;;
2107;SDS011;1060;52.492;13.388;2022-12-20T11:38:55;16.37;;;14.30;;
2107;SDS011;1060;52.492;13.388;2022-12-20T11:54:33;17.30;;;13.93;;
2107;SDS011;1060;52.492;13.388;2022-12-20T12:00:01;18.33;;;16.10;;
2107;SDS011;1060;52.492;13.388;2022-12-20T12:02:52;16.03;;;13.87;;
2107;SDS011;1060;52.492;13.388;2022-12-20T12:05:23;16.27;;;14.53;;
2107;SDS011;1060;52.492;13.388;2022-12-20T12:07:53;17.07;;;14.80;;
2107;SDS011;1060;52.492;13.388;2022-12-20T12:10:24;15.70;;;13.70;;
2107;SDS011;1060;52.492;13.388;2022-12-20T12:12:59;23.00;;;20.53;;
2107;SDS011;1060;52.492;13.388;2022-12-20T12:15:39;19.60;;;15.80;;
2107;SDS011;1060;52.492;13.388;2022-12-20T12:18:12;18.73;;;15.53;;
2107;SDS011;1060;52.492;13.388;2022-12-20T12:20:45;17.33;;;15.33;;
2107;SDS011;1060;52.492;13.388;2022-12-20T12:23:25;18.73;;;16.73;;
2107;SDS011;1060;52.492;13.388;2022-12-20T12:25:52;18.20;;;15.37;;
2107;SDS011;1060;52.492;13.388;2022-12-20T12:28:21;18.43;;;16.40;;
2107;SDS011;1060;52.492;13.388;2022-12-20T12:31:02;20.13;;;17.33;;
2107;SDS011;1060;52.492;13.388;2022-12-20T12:36:34;17.80;;;15.90;;
2107;SDS011;1060;52.492;13.388;2022-12-20T12:39:11;15.43;;;13.87;;
2107;SDS011;1060;52.492;13.388;2022-12-20T12:44:34;17.50;;;15.33;;
2107;SDS011;1060;52.492;13.388;2022-12-20T12:47:06;19.47;;;15.20;;
2107;SDS011;1060;52.492;13.388;2022-12-20T12:49:33;19.80;;;16.57;;
2107;SDS011;1060;52.492;13.388;2022-12-20T12:52:03;16.20;;;14.67;;
2107;SDS011;1060;52.492;13.388;2022-12-20T12:54:39;18.40;;;14.00;;
2107;SDS011;1060;52.492;13.388;2022-12-20T12:57:06;20.90;;;15.97;;
2107;SDS011;1060;52.492;13.388;2022-12-20T12:59:45;20.13;;;15.00;;
2107;SDS011;1060;52.492;13.388;2022-12-20T13:04:53;18.70;;;14.83;;
2107;SDS011;1060;52.492;13.388;2022-12-20T13:07:24;17.47;;;15.30;;
2107;SDS011;1060;52.492;13.388;2022-12-20T13:09:51;20.90;;;16.10;;
2107;SDS011;1060;52.492;13.388;2022-12-20T13:14:59;19.20;;;15.40;;
2107;SDS011;1060;52.492;13.388;2022-12-20T13:17:43;23.63;;;18.17;;
2107;SDS011;1060;52.492;13.388;2022-12-20T13:20:18;20.63;;;16.83;;
2107;SDS011;1060;52.492;13.388;2022-12-20T13:25:29;36.80;;;19.27;;
2107;SDS011;1060;52.492;13.388;2022-12-20T13:30:41;15.53;;;13.27;;
2107;SDS011;1060;52.492;13.388;2022-12-20T13:33:37;19.30;;;15.70;;
2107;SDS011;1060;52.492;13.388;2022-12-20T13:43:56;16.13;;;13.87;;
2107;SDS011;1060;52.492;13.388;2022-12-20T13:46:24;14.87;;;13.37;;
2107;SDS011;1060;52.492;13.388;2022-12-20T13:48:53;15.50;;;13.10;;
2107;SDS011;1060;52.492;13.388;2022-12-20T13:51:27;15.50;;;13.80;;
2107;SDS011;1060;52.492;13.388;2022-12-20T13:54:00;16.30;;;14.27;;
2107;SDS011;1060;52.492;13.388;2022-12-20T14:01:54;15.63;;;14.00;;
2107;SDS011;1060;52.492;13.388;2022-12-20T14:04:21;15.57;;;13.93;;
2107;SDS011;1060;52.492;13.388;2022-12-20T14:06:56;17.47;;;14.17;;
2107;SDS011;1060;52.492;13.388;2022-12-20T14:09:27;15.80;;;14.30;;
2107;SDS011;1060;52.492;13.388;2022-12-20T14:12:01;19.20;;;17.20;;
2107;SDS011;1060;52.492;13.388;2022-12-20T14:14:37;15.70;;;13.40;;
2107;SDS011;1060;52.492;13.388;2022-12-20T14:22:36;17.50;;;14.37;;
2107;SDS011;1060;52.492;13.388;2022-12-20T14:25:03;17.90;;;15.50;;
2107;SDS011;1060;52.492;13.388;2022-12-20T14:27:33;20.47;;;15.33;;
2107;SDS011;1060;52.492;13.388;2022-12-20T14:30:02;21.97;;;18.37;;
2107;SDS011;1060;52.492;13.388;2022-12-20T14:32:28;18.37;;;14.10;;
2107;SDS011;1060;52.492;13.388;2022-12-20T14:34:56;18.00;;;16.20;;
2107;SDS011;1060;52.492;13.388;2022-12-20T14:37:29;17.17;;;14.70;;
2107;SDS011;1060;52.492;13.388;2022-12-20T14:40:13;19.30;;;15.33;;
2107;SDS011;1060;52.492;13.388;2022-12-20T14:42:43;21.40;;;15.43;;
2107;SDS011;1060;52.492;13.388;2022-12-20T14:45:17;16.00;;;14.33;;
2107;SDS011;1060;52.492;13.388;2022-12-20T14:48:32;14.63;;;12.73;;
2107;SDS011;1060;52.492;13.388;2022-12-20T14:50:35;16.77;;;14.60;;
2107;SDS011;1060;52.492;13.388;2022-12-20T14:53:02;20.57;;;14.43;;
2107;SDS011;1060;52.492;13.388;2022-12-20T14:58:05;20.23;;;17.23;;
2107;SDS011;1060;52.492;13.388;2022-12-20T15:00:34;23.70;;;17.37;;
2107;SDS011;1060;52.492;13.388;2022-12-20T15:03:16;22.33;;;18.30;;
2107;SDS011;1060;52.492;13.388;2022-12-20T15:05:47;22.30;;;17.83;;
2107;SDS011;1060;52.492;13.388;2022-12-20T15:08:24;21.37;;;17.70;;
2107;SDS011;1060;52.492;13.388;2022-12-20T15:10:59;20.30;;;17.57;;
2107;SDS011;1060;52.492;13.388;2022-12-20T15:13:31;19.63;;;17.30;;
2107;SDS011;1060;52.492;13.388;2022-12-20T15:18:48;19.60;;;17.40;;
2107;SDS011;1060;52.492;13.388;2022-12-20T15:21:21;22.87;;;17.20;;
2107;SDS011;1060;52.492;13.388;2022-12-20T15:23:50;19.40;;;16.57;;
2107;SDS011;1060;52.492;13.388;2022-12-20T15:26:23;22.87;;;19.37;;
2107;SDS011;1060;52.492;13.388;2022-12-20T15:28:53;23.33;;;18.03;;
2107;SDS011;1060;52.492;13.388;2022-12-20T15:31:20;20.20;;;17.80;;
2107;SDS011;1060;52.492;13.388;2022-12-20T15:33:51;23.37;;;18.87;;
2107;SDS011;1060;52.492;13.388;2022-12-20T15:36:29;22.37;;;18.50;;
2107;SDS011;1060;52.492;13.388;2022-12-20T15:38:59;21.23;;;18.90;;
2107;SDS011;1060;52.492;13.388;2022-12-20T15:41:29;24.83;;;17.67;;
2107;SDS011;1060;52.492;13.388;2022-12-20T15:44:04;17.77;;;15.97;;
2107;SDS011;1060;52.492;13.388;2022-12-20T15:46:42;19.73;;;16.50;;
2107;SDS011;1060;52.492;13.388;2022-12-20T15:49:15;20.93;;;17.87;;
2107;SDS011;1060;52.492;13.388;2022-12-20T15:51:44;23.17;;;18.37;;
2107;SDS011;1060;52.492;13.388;2022-12-20T15:54:22;21.47;;;19.23;;
2107;SDS011;1060;52.492;13.388;2022-12-20T15:56:55;20.60;;;16.67;;
2107;SDS011;1060;52.492;13.388;2022-12-20T15:59:50;18.97;;;17.13;;
2107;SDS011;1060;52.492;13.388;2022-12-20T16:04:47;20.60;;;18.47;;
2107;SDS011;1060;52.492;13.388;2022-12-20T16:07:13;21.30;;;18.37;;
2107;SDS011;1060;52.492;13.388;2022-12-20T16:09:40;19.13;;;16.87;;
2107;SDS011;1060;52.492;13.388;2022-12-20T16:15:26;21.13;;;17.90;;
2107;SDS011;1060;52.492;13.388;2022-12-20T16:17:56;26.57;;;18.90;;
2107;SDS011;1060;52.492;13.388;2022-12-20T16:20:25;21.23;;;16.77;;
2107;SDS011;1060;52.492;13.388;2022-12-20T16:22:53;24.67;;;19.80;;
2107;SDS011;1060;52.492;13.388;2022-12-20T16:25:27;21.70;;;17.80;;
2107;SDS011;1060;52.492;13.388;2022-12-20T16:27:57;20.50;;;16.50;;
2107;SDS011;1060;52.492;13.388;2022-12-20T16:30:27;24.17;;;18.17;;
2107;SDS011;1060;52.492;13.388;2022-12-20T16:32:56;22.20;;;18.03;;
2107;SDS011;1060;52.492;13.388;2022-12-20T16:35:24;19.53;;;17.20;;
2107;SDS011;1060;52.492;13.388;2022-12-20T16:37:52;24.80;;;16.97;;
2107;SDS011;1060;52.492;13.388;2022-12-20T16:40:20;29.00;;;21.67;;
2107;SDS011;1060;52.492;13.388;2022-12-20T16:42:55;24.53;;;19.27;;
2107;SDS011;1060;52.492;13.388;2022-12-20T16:45:23;26.87;;;23.90;;